• Join FlightAware (Why Join?)
  • Login
  • US Flag 
05:29PM EDT


 

Airport Tracker/Info


-or-


 

Live Flight TrackerFlight Track Log ✈ EJA941 ✈ 25-Jun-2013 ✈ KPTK - KSUA

Flight Track Log - Related Links

Times and Time Zones

All times are in EDT time to prevent confusion due to time zone crossing. See the EJA941 flight status page for this flight to view local times or setup timezone preferences in your user account.

Time Position Orientation Groundspeed Altitude Reporting Facility
EDT Latitude Longitude Course Direction KTS MPH feet Rate Location/Type
09:05AM 42.6622 -83.4464 313° West 173 199 1,900  Level Cleveland Center
09:06AM 42.6903 -83.4872 313° West 225 259 4,900 1,860 Climbing Cleveland Center
09:07AM 42.7278 -83.4125 56° Northeast 263 303 5,600 1,800 Climbing Cleveland Center
09:07AM 42.7464 -83.3314 73° East 273 314 8,200 2,760 Climbing Cleveland Center
09:08AM 42.7278 -83.2372 105° East 284 327 10,500 2,040 Climbing Cleveland Center
09:09AM 42.6708 -83.1642 137° Southeast 319 367 12,200 1,500 Climbing Cleveland Center
09:10AM 42.5892 -83.1806 188° South 301 346 13,600 1,320 Climbing Cleveland Center
09:11AM 42.4953 -83.1936 186° South 316 364 14,900 1,500 Climbing Cleveland Center
09:12AM 42.3967 -83.2122 188° South 346 398 16,600 1,560 Climbing Cleveland Center
09:13AM 42.3067 -83.2281 187° South 372 428 18,100 1,380 Climbing Cleveland Center
09:14AM 42.2042 -83.2489 189° South 372 428 19,400 1,200 Climbing Cleveland Center
09:15AM 42.0975 -83.2669 187° South 377 434 20,500 960 Climbing Cleveland Center
09:16AM 41.9947 -83.2850 187° South 377 434 21,400 900 Climbing Cleveland Center
09:17AM 41.8861 -83.3025 187° South 389 448 22,300 900 Climbing Cleveland Center
09:18AM 41.7772 -83.3231 188° South 395 455 23,300 960 Climbing Cleveland Center
09:19AM 41.6600 -83.3403 186° South 412 474 24,300 960 Climbing Cleveland Center
09:20AM 41.5411 -83.3408 180° South 423 487 25,300 960 Climbing Cleveland Center
09:21AM 41.4272 -83.3886 197° South 416 479 26,300 960 Climbing Cleveland Center
09:22AM 41.3172 -83.4558 205° Southwest 427 491 27,300 960 Climbing Cleveland Center
09:23AM 41.2050 -83.5225 204° Southwest 437 503 28,300 900 Climbing Cleveland Center
09:25AM 41.0358 -83.6175 203° Southwest 445 512 29,500 780 Climbing Indianapolis Center
09:26AM 40.9169 -83.6858 203° Southwest 458 527 30,300 1,200 Climbing Indianapolis Center
09:27AM 40.7986 -83.7547 204° Southwest 462 532 32,100 1,500 Climbing Indianapolis Center
09:28AM 40.6750 -83.7864 191° South 454 522 33,500 960 Climbing Indianapolis Center
09:29AM 40.5467 -83.7989 184° South 459 528 34,100 720 Climbing Indianapolis Center
09:30AM 40.4136 -83.8122 184° South 472 543 35,000 900 Climbing Indianapolis Center
09:31AM 40.2800 -83.8250 184° South 477 549 36,000 1,020 Climbing Indianapolis Center
09:32AM 40.1253 -83.8406 184° South 477 549 37,200 960 Climbing Indianapolis Center
09:33AM 39.9917 -83.8539 184° South 479 551 38,000 540 Climbing Indianapolis Center
09:34AM 39.8564 -83.8683 185° South 487 560 38,400 480 Climbing Indianapolis Center
09:35AM 39.7200 -83.8811 184° South 491 565 39,000 540 Climbing Indianapolis Center
09:36AM 39.5819 -83.8794 179° South 493 567 39,600 480 Climbing Indianapolis Center
09:37AM 39.4206 -83.8686 177° South 495 570 40,000 180 Climbing Indianapolis Center
09:38AM 39.2806 -83.8589 177° South 501 577 40,000  Level Indianapolis Center
09:39AM 39.1383 -83.8469 176° South 505 581 40,000  Level Indianapolis Center
09:40AM 38.9964 -83.8367 177° South 507 583 40,000  Level Indianapolis Center
09:41AM 38.8547 -83.8250 176° South 505 581 40,000  Level Indianapolis Center
09:42AM 38.7122 -83.8133 176° South 509 586 40,000  Level Indianapolis Center
09:43AM 38.5614 -83.8031 177° South 510 587 40,000  Level Indianapolis Center
09:44AM 38.4181 -83.7931 177° South 515 593 40,000  Level Indianapolis Center
09:45AM 38.2514 -83.7797 176° South 514 592 40,000  Level Indianapolis Center
09:46AM 38.1081 -83.7697 177° South 516 594 40,000  Level Indianapolis Center
09:47AM 37.9647 -83.7594 177° South 515 593 40,000  Level Indianapolis Center
09:48AM 37.8228 -83.7492 177° South 513 590 40,000  Level Indianapolis Center
09:50AM 37.6814 -83.7392 177° South 507 583 40,000 180 Level Indianapolis Center
09:51AM 37.5153 -83.7272 177° South 511 588 40,400 420 Climbing Indianapolis Center
09:52AM 37.3753 -83.7169 177° South 506 582 40,900 240 Climbing Indianapolis Center
09:53AM 37.2347 -83.7072 177° South 506 582 41,000  Climbing Indianapolis Center
09:54AM 37.0931 -83.6972 177° South 509 586 41,000  Level Indianapolis Center
09:55AM 36.9519 -83.6875 177° South 509 586 41,000  Level Indianapolis Center
09:56AM 36.7858 -83.6750 177° South 513 590 41,000  Level Indianapolis Center
09:57AM 36.6433 -83.6647 177° South 515 593 41,000  Level Indianapolis Center
09:58AM 36.4911 -83.6544 177° South 513 590 41,000  Level Indianapolis Center
09:59AM 36.3475 -83.6444 177° South 513 590 41,000  Level Indianapolis Center
10:00AM 36.2050 -83.6339 177° South 511 588 41,000  Level Indianapolis Center
10:01AM 36.0622 -83.6250 177° South 511 588 41,000  Level Indianapolis Center
10:02AM 35.8906 -83.6133 177° South 517 595 41,000  Level Atlanta Center
10:03AM 35.7467 -83.6039 177° South 517 595 41,000  Level Atlanta Center
10:04AM 35.6047 -83.5942 177° South 517 595 41,000  Level Atlanta Center
10:05AM 35.4650 -83.5822 176° South 517 595 41,000  Level Atlanta Center
10:06AM 35.3211 -83.5756 178° South 517 595 41,000  Level Atlanta Center
10:07AM 35.1769 -83.5686 178° South 517 595 41,000  Level Atlanta Center
10:08AM 35.0414 -83.5567 176° South 517 595 41,000  Level Atlanta Center
10:09AM 34.9161 -83.5475 177° South 511 588 41,000  Level Atlanta Center
10:10AM 34.7719 -83.5381 177° South 511 588 41,000  Level Atlanta Center
10:11AM 34.6197 -83.5239 176° South 511 588 41,000  Level Atlanta Center
10:12AM 34.4797 -83.5147 177° South 517 595 41,000  Level Atlanta Center
10:13AM 34.3358 -83.5031 176° South 517 595 41,000  Level Atlanta Center
10:14AM 34.1981 -83.4964 178° South 517 595 41,000  Level Atlanta Center
10:15AM 34.0728 -83.4894 177° South 509 586 41,000  Level Atlanta Center
10:16AM 33.9328 -83.4806 177° South 509 586 41,000  Level Atlanta Center
10:17AM 33.7931 -83.4714 177° South 509 586 41,000  Level Atlanta Center
10:18AM 33.6508 -83.4622 177° South 509 586 41,000  Level Atlanta Center
10:19AM 33.4986 -83.4533 177° South 509 586 41,000  Level Atlanta Center
10:20AM 33.3567 -83.4444 177° South 502 578 41,000  Level Atlanta Center
10:21AM 33.2167 -83.4356 177° South 507 583 41,000  Level Atlanta Center
10:22AM 33.0767 -83.4289 178° South 507 583 41,000  Level Atlanta Center
10:23AM 32.9389 -83.4150 175° South 502 578 41,000  Level Atlanta Center
10:24AM 32.7992 -83.4061 177° South 502 578 41,000  Level Atlanta Center
10:25AM 32.6592 -83.3997 178° South 502 578 41,000  Level Atlanta Center
10:26AM 32.5339 -83.3908 177° South 497 572 41,000  Level Atlanta Center
10:27AM 32.3939 -83.3844 178° South 497 572 41,000  Level Atlanta Center
10:28AM 32.2542 -83.3733 176° South 497 572 41,000  Level Atlanta Center
10:29AM 32.1142 -83.3644 177° South 502 578 41,000  Level Atlanta Center
10:30AM 31.9742 -83.3533 176° South 502 578 41,000  Level Atlanta Center
10:31AM 31.8322 -83.3469 178° South 502 578 41,000  Level Atlanta Center
10:32AM 31.6903 -83.3358 176° South 502 578 41,000  Level Atlanta Center
10:33AM 31.5186 -83.3264 177° South 510 587 41,000  Level Jacksonville Center
10:34AM 31.3767 -83.3111 175° South 515 593 41,000  Level Jacksonville Center
10:35AM 31.2411 -83.2644 164° South 515 593 41,000  Level Jacksonville Center
10:36AM 31.1056 -83.2128 162° South 510 587 41,000  Level Jacksonville Center
10:37AM 30.9742 -83.1592 161° South 510 587 41,000  Level Jacksonville Center
10:38AM 30.8383 -83.1078 162° South 510 587 41,000  Level Jacksonville Center
10:39AM 30.7069 -83.0594 162° South 505 581 41,000  Level Jacksonville Center
10:40AM 30.5756 -83.0083 161° South 500 575 41,000  Level Jacksonville Center
10:41AM 30.4397 -82.9575 162° South 505 581 41,000  Level Jacksonville Center
10:42AM 30.3061 -82.9069 162° South 505 581 41,000  Level Jacksonville Center
10:43AM 30.1747 -82.8567 162° South 500 575 41,000  Level Jacksonville Center
10:44AM 30.0431 -82.8061 162° South 500 575 41,000  Level Jacksonville Center
10:45AM 29.9094 -82.7561 162° South 500 575 41,000  Level Jacksonville Center
10:46AM 29.7800 -82.7058 161° South 500 575 41,000  Level Jacksonville Center
10:47AM 29.6503 -82.6561 162° South 495 570 41,000  Level Jacksonville Center
10:48AM 29.5189 -82.6086 163° South 500 575 41,000  Level Jacksonville Center
10:49AM 29.3872 -82.5589 162° South 500 575 41,000  Level Jacksonville Center
10:50AM 29.2556 -82.5094 162° South 500 575 41,000  Level Jacksonville Center
10:51AM 29.1239 -82.4600 162° South 500 575 41,000  Level Jacksonville Center
10:52AM 28.9881 -82.4319 170° South 500 575 41,000 -60 Level Jacksonville Center
10:53AM 28.8522 -82.4161 174° South 495 570 40,900 -900 Descending Jacksonville Center
10:54AM 28.7167 -82.3978 173° South 495 570 39,200 -1,560 Descending Jacksonville Center
10:55AM 28.5747 -82.3797 174° South 501 577 37,800 -1,380 Descending Jacksonville Center
10:57AM 28.2731 -82.3417 174° South 513 590 35,000 -960 Descending Miami Center
10:58AM 28.1297 -82.3253 174° South 520 598 35,000  Level Miami Center
10:59AM 27.9828 -82.2944 170° South 525 604 35,000  Level Miami Center
11:00AM 27.8447 -82.2481 163° South 525 604 35,000 -600 Level Miami Center
11:01AM 27.7069 -82.1969 162° South 520 598 33,800 -1,500 Descending Miami Center
11:02AM 27.5647 -82.1483 163° South 531 611 32,000 -1,440 Descending Miami Center
11:03AM 27.4228 -82.0972 162° South 536 617 31,000 -900 Descending Miami Center
11:04AM 27.2928 -82.0539 163° South 536 617 30,200 -2,640 Descending Miami Center
11:05AM 27.1400 -82.0028 163° South 525 604 25,800 -3,180 Descending Miami Center
11:06AM 27.0103 -81.9597 164° South 501 577 23,900 -1,200 Descending Miami Center
11:07AM 26.8889 -81.9033 157° South 486 559 23,500 -1,380 Descending Miami Center
11:08AM 26.7922 -81.8036 137° Southeast 464 534 21,200 -2,220 Descending Miami Center
11:09AM 26.7125 -81.6933 129° Southeast 458 527 19,100 -1,140 Descending Miami Center
11:10AM 26.7086 -81.5539 92° East 418 481 19,000 -420 Descending Miami Center
11:11AM 26.7378 -81.4225 76° East 418 481 18,300 -1,260 Descending Miami Center
11:12AM 26.7669 -81.2911 76° East 432 497 16,500 -1,860 Descending Miami Center
11:13AM 26.7956 -81.1758 74° East 425 489 14,600 -2,040 Descending Miami Center
11:14AM 26.8203 -81.0394 78° East 412 474 12,500 -1,860 Descending Miami Center
11:15AM 26.8319 -80.9306 83° East 373 429 10,900 -1,260 Descending Miami Center
11:16AM 26.8325 -80.8328 90° East 332 382 10,000 -480 Descending Miami Center
11:17AM 26.8031 -80.7619 115° Southeast 289 333 10,000 -600 Level Miami Center
11:18AM 26.8053 -80.6758 88° East 277 319 8,900 -1,560 Descending Miami Center
11:19AM 26.8697 -80.6128 41° Northeast 249 287 6,900 -1,800 Descending Miami Center
11:20AM 26.9275 -80.5564 41° Northeast 263 303 5,300 -1,620 Descending Miami Center
11:21AM 26.9789 -80.5044 42° Northeast 268 308 3,700 -1,200 Descending Miami Center
11:22AM 27.0325 -80.4525 41° Northeast 262 302 3,000 -360 Descending Miami Center
11:23AM 27.0922 -80.3936 41° Northeast 262 302 3,000 -300 Level Miami Center
11:24AM 27.1414 -80.3439 42° Northeast 250 288 2,500 -540 Descending Miami Center
11:26AM 27.1667 -80.2167 53° Northeast  Level FlightAware Approximate
11:33AM 27.1817 -80.2213 53° Northeast  Level Estimated
11:34AM 27.1817 -80.2213 53° Northeast  Level Estimated
11:35AM 27.1817 -80.2213 53° Northeast  Level Estimated
11:36AM 27.1817 -80.2213 53° Northeast  Level Estimated